createdAt,value
2019-05-19T00:01:18.015Z,85.87
2019-05-19T00:03:48.262Z,86.08
2019-05-19T00:06:19.018Z,98.58
2019-05-19T00:08:49.314Z,86.95
2019-05-19T00:11:19.819Z,95.53
2019-05-19T00:13:50.111Z,87.53
2019-05-19T00:16:20.369Z,83.20
2019-05-19T00:18:50.606Z,95.60
2019-05-19T00:21:20.796Z,94.45
2019-05-19T00:23:51.183Z,87.80
2019-05-19T00:26:21.738Z,78.90
2019-05-19T00:28:52.437Z,92.23
2019-05-19T00:31:22.846Z,87.75
2019-05-19T00:33:53.140Z,92.35
2019-05-19T00:36:23.718Z,85.30
2019-05-19T00:38:54.370Z,87.15
2019-05-19T00:41:24.576Z,91.82
2019-05-19T00:43:54.991Z,88.62
2019-05-19T00:46:37.227Z,93.10
2019-05-19T00:49:07.561Z,85.38
2019-05-19T00:51:38.403Z,93.20
2019-05-19T00:54:09.096Z,91.82
2019-05-19T00:56:39.784Z,81.22
2019-05-19T00:59:11.001Z,81.03
2019-05-19T01:01:41.315Z,85.97
2019-05-19T01:04:11.731Z,89.90
2019-05-19T01:06:42.032Z,78.33
2019-05-19T01:09:13.479Z,80.87
2019-05-19T01:11:44.140Z,87.80
2019-05-19T01:14:15.430Z,82.30
2019-05-19T01:16:46.128Z,86.37
2019-05-19T01:19:16.353Z,88.33
2019-05-19T01:21:47.129Z,89.10
2019-05-19T01:24:17.405Z,92.40
2019-05-19T01:26:47.620Z,102.17
2019-05-19T01:29:17.886Z,90.38
2019-05-19T01:31:48.158Z,84.73
2019-05-19T01:34:18.722Z,96.72
2019-05-19T01:36:49.291Z,90.95
2019-05-19T01:39:19.921Z,94.55
2019-05-19T01:41:50.175Z,92.10
2019-05-19T01:44:20.367Z,95.42
2019-05-19T01:46:50.928Z,99.07
2019-05-19T01:49:21.530Z,102.05
2019-05-19T01:51:52.172Z,98.93
2019-05-19T01:54:22.375Z,103.20
2019-05-19T01:56:52.989Z,95.62
2019-05-19T01:59:23.475Z,97.30
2019-05-19T02:01:54.898Z,99.50
2019-05-19T02:04:25.956Z,96.83
2019-05-19T02:06:56.565Z,101.17
2019-05-19T02:09:26.856Z,99.17
2019-05-19T02:11:57.124Z,101.73
2019-05-19T02:14:27.415Z,104.50
2019-05-19T02:16:57.780Z,104.93
2019-05-19T02:19:28.309Z,107.93
2019-05-19T02:21:58.852Z,102.47
2019-05-19T02:24:29.108Z,106.33
2019-05-19T02:26:59.363Z,107.50
2019-05-19T02:29:29.787Z,105.90
2019-05-19T02:32:00.405Z,106.57
2019-05-19T02:34:30.779Z,110.13
2019-05-19T02:37:01.472Z,113.17
2019-05-19T02:39:31.790Z,104.27
2019-05-19T02:42:04.400Z,109.72
2019-05-19T02:44:36.815Z,114.88
2019-05-19T02:47:08.124Z,110.77
2019-05-19T02:49:39.609Z,123.87
2019-05-19T02:52:11.769Z,109.52
2019-05-19T02:54:42.445Z,113.30
2019-05-19T02:57:12.773Z,111.08
2019-05-19T02:59:45.267Z,112.47
2019-05-19T03:02:15.545Z,109.72
2019-05-19T03:04:47.486Z,114.17
2019-05-19T03:07:17.623Z,117.23
2019-05-19T03:09:52.548Z,110.83
2019-05-19T03:12:23.377Z,114.73
2019-05-19T03:14:54.048Z,115.27
2019-05-19T03:17:25.873Z,114.57
2019-05-19T03:19:56.173Z,125.27
2019-05-19T03:22:26.640Z,114.53
2019-05-19T03:24:57.244Z,128.80
2019-05-19T03:27:27.490Z,122.00
2019-05-19T03:29:59.752Z,115.90
2019-05-19T03:32:37.905Z,116.63
2019-05-19T03:35:08.305Z,119.37
2019-05-19T03:37:38.895Z,124.00
2019-05-19T03:40:20.458Z,127.93
2019-05-19T03:42:53.670Z,120.77
2019-05-19T03:45:23.929Z,125.47
2019-05-19T03:47:54.226Z,124.03
2019-05-19T03:50:24.855Z,133.57
2019-05-19T03:52:55.019Z,132.87
2019-05-19T03:55:25.677Z,127.40
2019-05-19T03:57:56.341Z,126.07
2019-05-19T04:00:26.770Z,129.87
2019-05-19T04:02:57.376Z,131.17
2019-05-19T04:05:27.680Z,119.85
2019-05-19T04:07:58.042Z,121.53
2019-05-19T04:10:28.333Z,125.73
2019-05-19T04:12:58.534Z,129.07
2019-05-19T04:15:29.118Z,129.20
2019-05-19T04:17:59.435Z,128.53
2019-05-19T04:20:29.721Z,133.10
2019-05-19T04:23:00.284Z,128.97
2019-05-19T04:25:30.908Z,122.43
2019-05-19T04:28:01.449Z,130.93
2019-05-19T04:30:31.738Z,128.90
2019-05-19T04:33:01.914Z,119.57
2019-05-19T04:35:32.153Z,118.57
2019-05-19T04:38:02.435Z,128.37
2019-05-19T04:40:32.727Z,114.97
2019-05-19T04:43:02.981Z,123.10
2019-05-19T04:45:33.478Z,129.40
2019-05-19T04:48:09.216Z,121.60
2019-05-19T04:50:37.640Z,130.87
2019-05-19T04:53:08.368Z,123.83
2019-05-19T04:55:38.676Z,131.47
2019-05-19T04:58:10.106Z,128.43
2019-05-19T05:00:40.358Z,127.70
2019-05-19T05:03:10.518Z,123.40
2019-05-19T05:05:40.834Z,129.30
2019-05-19T05:08:28.056Z,124.90
2019-05-19T05:10:43.563Z,131.90
2019-05-19T05:13:13.785Z,131.67
2019-05-19T05:15:45.199Z,124.05
2019-05-19T05:18:15.864Z,135.27
2019-05-19T05:20:46.075Z,129.53
2019-05-19T05:23:16.347Z,130.47
2019-05-19T05:25:46.854Z,134.37
2019-05-19T05:28:17.081Z,131.63
2019-05-19T05:30:47.706Z,136.40
2019-05-19T05:33:18.453Z,125.50
2019-05-19T05:35:49.148Z,129.40
2019-05-19T05:38:19.781Z,132.10
2019-05-19T05:40:50.445Z,140.35
2019-05-19T05:43:21.075Z,137.03
2019-05-19T05:45:51.381Z,130.25
2019-05-19T05:48:21.552Z,130.60
2019-05-19T05:50:52.694Z,132.40
2019-05-19T05:53:22.928Z,129.90
2019-05-19T05:55:53.168Z,126.53
2019-05-19T05:58:23.428Z,132.63
2019-05-19T06:00:54.176Z,130.40
2019-05-19T06:03:24.449Z,132.87
2019-05-19T06:05:55.080Z,133.30
2019-05-19T06:08:25.335Z,121.33
2019-05-19T06:10:56.525Z,137.80
2019-05-19T06:13:26.838Z,136.77
2019-05-19T06:15:58.363Z,135.57
2019-05-19T06:18:28.705Z,134.87
2019-05-19T06:20:59.022Z,135.53
2019-05-19T06:23:29.507Z,137.43
2019-05-19T06:25:59.733Z,141.55
2019-05-19T06:28:30.029Z,143.00
2019-05-19T06:31:00.615Z,141.53
2019-05-19T06:33:30.910Z,143.00
2019-05-19T06:36:03.035Z,149.70
2019-05-19T06:38:34.134Z,140.47
2019-05-19T06:41:04.799Z,143.17
2019-05-19T06:43:35.481Z,148.97
2019-05-19T06:46:05.877Z,143.43
2019-05-19T06:48:36.151Z,147.77
2019-05-19T06:51:06.370Z,148.55
2019-05-19T06:53:37.039Z,147.53
2019-05-19T06:56:07.719Z,151.63
2019-05-19T06:58:37.992Z,154.43
2019-05-19T07:01:08.346Z,141.10
2019-05-19T07:03:38.941Z,140.12
2019-05-19T07:06:09.250Z,143.77
2019-05-19T07:08:40.932Z,141.55
2019-05-19T07:11:11.544Z,148.77
2019-05-19T07:13:42.157Z,150.97
2019-05-19T07:16:13.673Z,155.87
2019-05-19T07:18:43.948Z,146.27
2019-05-19T07:21:14.329Z,153.70
2019-05-19T07:23:44.519Z,148.02
2019-05-19T07:26:15.110Z,146.32
2019-05-19T07:28:45.705Z,155.50
2019-05-19T07:31:17.115Z,156.30
2019-05-19T07:33:47.401Z,146.25
2019-05-19T07:36:18.096Z,152.68
2019-05-19T07:38:48.664Z,149.40
2019-05-19T07:41:18.993Z,141.47
2019-05-19T07:43:49.321Z,141.70
2019-05-19T07:46:19.633Z,141.45
2019-05-19T07:48:50.215Z,141.28
2019-05-19T07:51:20.423Z,145.43
2019-05-19T07:53:50.853Z,143.65
2019-05-19T07:56:21.377Z,142.65
2019-05-19T07:58:51.660Z,145.80
2019-05-19T08:01:22.130Z,147.53
2019-05-19T08:03:52.393Z,148.68
2019-05-19T08:06:22.735Z,141.80
2019-05-19T08:08:53.008Z,135.50
2019-05-19T08:11:23.297Z,139.82
2019-05-19T08:13:53.851Z,143.85
2019-05-19T08:16:24.459Z,133.80
2019-05-19T08:18:54.763Z,143.47
2019-05-19T08:21:25.558Z,134.80
2019-05-19T08:24:00.572Z,138.32
2019-05-19T08:26:28.339Z,142.53
2019-05-19T08:28:58.568Z,141.03
2019-05-19T08:31:29.098Z,141.88
2019-05-19T08:33:59.615Z,133.22
2019-05-19T08:36:30.370Z,136.18
2019-05-19T08:39:00.551Z,134.72
2019-05-19T08:41:30.992Z,134.43
2019-05-19T08:44:02.315Z,132.85
2019-05-19T08:46:32.881Z,127.10
2019-05-19T08:49:03.162Z,130.07
2019-05-19T08:51:33.835Z,129.90
2019-05-19T08:54:14.365Z,149.30
2019-05-19T08:56:36.364Z,130.43
2019-05-19T08:59:06.654Z,127.45
2019-05-19T09:01:36.956Z,125.60
2019-05-19T09:04:08.028Z,121.77
2019-05-19T09:06:38.326Z,132.43
2019-05-19T09:09:08.618Z,124.38
2019-05-19T09:11:39.905Z,130.85
2019-05-19T09:14:10.206Z,128.70
2019-05-19T09:16:41.188Z,123.25
2019-05-19T09:19:12.221Z,125.95
2019-05-19T09:21:42.907Z,127.47
2019-05-19T09:24:30.164Z,146.87
2019-05-19T09:26:51.076Z,156.00
2019-05-19T09:29:21.705Z,150.75
2019-05-19T09:31:52.016Z,137.05
2019-05-19T09:34:22.335Z,129.78
2019-05-19T09:36:53.454Z,131.67
2019-05-19T09:39:24.012Z,127.35
2019-05-19T09:41:54.342Z,134.05
2019-05-19T09:44:24.588Z,126.27
2019-05-19T09:46:54.979Z,119.65
2019-05-19T09:49:35.138Z,132.97
2019-05-19T09:52:07.299Z,132.07
2019-05-19T09:54:45.103Z,132.20
2019-05-19T09:57:09.736Z,128.62
2019-05-19T09:59:40.051Z,125.12
2019-05-19T10:02:10.372Z,118.97
2019-05-19T10:04:40.947Z,117.53
2019-05-19T10:07:12.058Z,119.70
2019-05-19T10:09:57.037Z,119.67
2019-05-19T10:12:28.811Z,110.63
2019-05-19T10:15:00.033Z,115.45
2019-05-19T10:17:30.394Z,117.60
2019-05-19T10:20:00.767Z,115.50
2019-05-19T10:22:31.461Z,116.85
2019-05-19T10:25:20.239Z,113.22
2019-05-19T10:27:34.241Z,115.42
2019-05-19T10:30:07.982Z,113.50
2019-05-19T10:32:38.978Z,110.08
2019-05-19T10:35:09.551Z,111.75
2019-05-19T10:37:42.690Z,111.08
2019-05-19T10:40:12.966Z,105.70
2019-05-19T10:42:43.877Z,113.00
2019-05-19T10:45:14.503Z,117.60
2019-05-19T10:47:44.974Z,119.87
2019-05-19T10:50:15.419Z,110.00
2019-05-19T10:52:45.777Z,105.65
2019-05-19T10:55:16.136Z,111.75
2019-05-19T10:57:46.828Z,108.92
2019-05-19T11:00:17.244Z,104.03
2019-05-19T11:02:47.714Z,101.05
2019-05-19T11:05:18.118Z,102.02
2019-05-19T11:07:48.837Z,100.12
2019-05-19T11:10:19.627Z,97.55
2019-05-19T11:12:50.226Z,94.30
2019-05-19T11:15:20.831Z,101.85
2019-05-19T11:17:51.471Z,101.12
2019-05-19T11:20:21.678Z,95.40
2019-05-19T11:22:52.021Z,97.92
2019-05-19T11:25:33.346Z,95.53
2019-05-19T11:27:56.282Z,93.12
2019-05-19T11:30:26.641Z,96.92
2019-05-19T11:32:57.021Z,89.95
2019-05-19T11:35:27.692Z,96.12
2019-05-19T11:37:58.403Z,101.15
2019-05-19T11:40:28.943Z,93.30
2019-05-19T11:42:59.631Z,93.42
2019-05-19T11:45:29.870Z,92.02
2019-05-19T11:48:00.117Z,104.65
2019-05-19T11:50:30.384Z,97.92
2019-05-19T11:53:00.992Z,88.10
2019-05-19T11:55:31.216Z,98.07
2019-05-19T11:58:01.789Z,91.25
2019-05-19T12:00:32.081Z,97.78
2019-05-19T12:03:02.368Z,82.22
2019-05-19T12:05:32.817Z,85.95
2019-05-19T12:08:03.923Z,87.05
2019-05-19T12:10:34.260Z,86.12
2019-05-19T12:13:05.410Z,99.20
2019-05-19T12:15:35.733Z,92.53
2019-05-19T12:18:06.421Z,87.70
2019-05-19T12:20:36.715Z,91.92
2019-05-19T12:23:06.962Z,91.55
2019-05-19T12:25:37.291Z,82.95
2019-05-19T12:28:07.603Z,89.50
2019-05-19T12:30:37.980Z,90.03
2019-05-19T12:33:08.560Z,92.35
2019-05-19T12:35:38.904Z,86.55
2019-05-19T12:38:12.404Z,94.03
2019-05-19T12:40:44.634Z,94.37
2019-05-19T12:43:15.382Z,99.22
2019-05-19T12:45:46.278Z,97.35
2019-05-19T12:48:16.676Z,95.90
2019-05-19T12:50:46.886Z,98.22
2019-05-19T12:53:43.096Z,88.97
2019-05-19T12:56:13.783Z,92.75
2019-05-19T12:58:44.839Z,91.55
2019-05-19T13:01:15.201Z,83.65
2019-05-19T13:03:46.166Z,84.30
2019-05-19T13:06:17.049Z,85.38
2019-05-19T13:08:47.660Z,87.88
2019-05-19T13:11:18.353Z,87.53
2019-05-19T13:13:48.742Z,84.75
2019-05-19T13:16:20.209Z,86.47
2019-05-19T13:18:50.622Z,85.92
2019-05-19T13:21:20.974Z,90.50
2019-05-19T13:23:51.340Z,87.30
2019-05-19T13:39:05.114Z,94.73
2019-05-19T13:41:36.015Z,94.90
2019-05-19T13:44:06.412Z,92.82
2019-05-19T13:46:36.703Z,90.35
2019-05-19T13:49:07.913Z,98.33
2019-05-19T13:51:38.593Z,91.02
2019-05-19T13:54:09.016Z,96.08
2019-05-19T13:56:39.803Z,98.30
2019-05-19T13:59:10.413Z,99.20
2019-05-19T14:01:40.746Z,122.60
2019-05-19T14:04:11.192Z,100.33
2019-05-19T14:06:42.739Z,91.63
2019-05-19T14:09:15.203Z,88.20
2019-05-19T14:11:44.994Z,82.02
2019-05-19T14:14:15.670Z,86.25
2019-05-19T14:16:45.994Z,83.45
2019-05-19T14:19:16.284Z,65.17
2019-05-19T14:21:47.403Z,64.82
2019-05-19T14:24:17.676Z,60.20
2019-05-19T14:26:48.001Z,58.05
2019-05-19T14:29:18.335Z,56.83
2019-05-19T14:31:48.793Z,53.85
2019-05-19T14:34:19.581Z,53.87
2019-05-19T14:36:49.839Z,59.23
2019-05-19T14:39:20.157Z,64.35
2019-05-19T14:41:54.709Z,52.80
2019-05-19T14:44:25.383Z,52.45
2019-05-19T14:46:55.617Z,59.73
2019-05-19T14:49:26.307Z,55.40
2019-05-19T14:51:56.691Z,58.65
2019-05-19T14:54:27.044Z,69.80
2019-05-19T15:09:38.063Z,56.93
2019-05-19T15:12:08.842Z,40.52
2019-05-19T15:14:39.133Z,19.23
2019-05-19T15:17:09.718Z,9.70
2019-05-19T15:19:50.242Z,12.60
2019-05-19T15:22:20.908Z,12.40
2019-05-19T15:24:51.224Z,15.30
2019-05-19T15:27:21.585Z,18.02
2019-05-19T15:29:51.925Z,19.23
2019-05-19T15:32:22.230Z,20.17
2019-05-19T15:34:52.559Z,17.98
2019-05-19T15:37:24.955Z,20.08
2019-05-19T15:39:55.228Z,26.40
2019-05-19T15:42:25.466Z,22.70
2019-05-19T15:44:55.820Z,24.17
2019-05-19T15:47:26.146Z,24.53
2019-05-19T15:49:56.415Z,23.00
2019-05-19T15:52:27.382Z,22.67
2019-05-19T15:54:57.785Z,24.45
2019-05-19T15:57:28.721Z,17.33
2019-05-19T15:59:59.340Z,15.55
2019-05-19T16:02:29.673Z,15.05
2019-05-19T16:04:59.914Z,14.18
2019-05-19T16:07:30.243Z,19.07
2019-05-19T16:10:00.587Z,16.32
2019-05-19T16:12:30.859Z,18.02
2019-05-19T16:15:01.240Z,19.75
2019-05-19T16:17:31.842Z,17.02
2019-05-19T16:20:04.511Z,19.45
2019-05-19T16:22:36.317Z,17.12
2019-05-19T16:25:07.793Z,18.05
2019-05-19T16:27:37.962Z,14.53
2019-05-19T16:30:08.756Z,19.27
2019-05-19T16:32:39.642Z,19.87
2019-05-19T16:35:10.176Z,20.48
2019-05-19T16:37:40.572Z,20.82
2019-05-19T16:40:11.531Z,21.53
2019-05-19T16:42:42.096Z,16.47
2019-05-19T16:45:14.238Z,18.42
2019-05-19T16:47:44.514Z,18.60
2019-05-19T16:50:16.064Z,18.47
2019-05-19T16:52:46.369Z,18.82
2019-05-19T16:55:25.311Z,21.77
2019-05-19T16:57:56.056Z,21.48
2019-05-19T17:00:27.768Z,20.88
2019-05-19T17:02:58.156Z,26.30
2019-05-19T17:05:29.769Z,33.58
2019-05-19T17:08:00.813Z,34.95
2019-05-19T17:10:31.070Z,37.45
2019-05-19T17:13:01.670Z,43.10
2019-05-19T17:15:32.050Z,42.35
2019-05-19T17:18:02.344Z,41.20
2019-05-19T17:20:32.680Z,48.73
2019-05-19T17:23:03.159Z,46.00
2019-05-19T17:25:33.406Z,44.27
2019-05-19T17:28:03.688Z,42.65
2019-05-19T17:30:34.978Z,43.80
2019-05-19T17:33:05.463Z,44.13
2019-05-19T17:35:35.886Z,42.55
2019-05-19T17:38:06.477Z,44.03
2019-05-19T17:40:37.007Z,45.67
2019-05-19T17:43:07.698Z,42.33
2019-05-19T17:45:38.054Z,46.45
2019-05-19T17:48:11.652Z,43.63
2019-05-19T17:50:40.242Z,44.70
2019-05-19T17:53:10.899Z,58.20
2019-05-19T17:55:43.372Z,52.87
2019-05-19T17:58:13.691Z,46.45
2019-05-19T18:00:44.458Z,46.07
2019-05-19T18:03:14.744Z,44.87
2019-05-19T18:05:45.408Z,50.90
2019-05-19T18:08:15.848Z,48.92
2019-05-19T18:10:46.108Z,52.73
2019-05-19T18:13:16.783Z,50.05
2019-05-19T18:15:47.360Z,53.05
2019-05-19T18:18:17.761Z,57.90
2019-05-19T18:20:47.949Z,53.67
2019-05-19T18:23:18.899Z,60.92
2019-05-19T18:25:49.191Z,57.60
2019-05-19T18:28:19.515Z,54.27
2019-05-19T18:30:49.821Z,62.57
2019-05-19T18:33:20.131Z,65.92
2019-05-19T18:35:50.454Z,67.82
2019-05-19T18:38:20.833Z,66.57
2019-05-19T18:40:51.131Z,67.72
2019-05-19T18:43:21.595Z,62.85
2019-05-19T18:45:51.888Z,65.17
2019-05-19T18:48:23.435Z,66.65
2019-05-19T18:50:54.621Z,69.53
2019-05-19T18:53:25.271Z,64.57
2019-05-19T18:55:55.890Z,69.67
2019-05-19T18:58:28.035Z,77.92
2019-05-19T19:00:58.324Z,71.72
2019-05-19T19:03:28.658Z,82.97
2019-05-19T19:05:58.889Z,78.80
2019-05-19T19:08:29.411Z,76.85
2019-05-19T19:10:59.641Z,80.55
2019-05-19T19:13:30.371Z,84.47
2019-05-19T19:16:00.623Z,93.60
2019-05-19T19:18:30.995Z,107.67
2019-05-19T19:21:01.447Z,105.00
2019-05-19T19:23:32.502Z,96.20
2019-05-19T19:26:03.205Z,87.85
2019-05-19T19:28:34.246Z,98.00
2019-05-19T19:31:04.461Z,95.80
2019-05-19T19:33:34.778Z,97.60
2019-05-19T19:36:05.117Z,112.80
2019-05-19T19:38:35.532Z,112.87
2019-05-19T19:41:05.845Z,124.47
2019-05-19T19:43:36.483Z,123.77
2019-05-19T19:46:06.777Z,116.90
2019-05-19T19:48:37.071Z,122.80
2019-05-19T19:51:07.374Z,127.27
2019-05-19T19:53:37.720Z,123.23
2019-05-19T19:56:08.172Z,121.30
2019-05-19T19:58:38.419Z,116.17
2019-05-19T20:01:08.735Z,104.03
2019-05-19T20:03:40.550Z,125.40
2019-05-19T20:06:11.092Z,114.80
2019-05-19T20:08:41.890Z,110.07
2019-05-19T20:11:12.683Z,115.00
2019-05-19T20:13:42.926Z,111.50
2019-05-19T20:16:14.026Z,115.07
2019-05-19T20:18:44.384Z,116.70
2019-05-19T20:21:14.764Z,125.33
2019-05-19T20:23:45.079Z,113.17
2019-05-19T20:26:15.362Z,123.40
2019-05-19T20:28:45.664Z,127.37
2019-05-19T20:31:15.967Z,142.97
2019-05-19T20:33:46.233Z,146.13
2019-05-19T20:36:16.393Z,153.33
2019-05-19T20:38:46.775Z,164.87
2019-05-19T20:41:18.536Z,169.47
2019-05-19T20:43:50.197Z,183.10
2019-05-19T20:46:20.750Z,166.63
2019-05-19T20:48:51.008Z,181.07
2019-05-19T20:51:21.640Z,173.30
2019-05-19T20:53:53.409Z,171.13
2019-05-19T20:56:23.721Z,175.83
2019-05-19T20:58:54.371Z,181.93
2019-05-19T21:01:24.612Z,179.53
2019-05-19T21:03:54.990Z,184.23
2019-05-19T21:06:25.264Z,183.33
2019-05-19T21:08:55.590Z,175.50
2019-05-19T21:11:26.764Z,185.10
2019-05-19T21:13:57.090Z,197.13
2019-05-19T21:16:27.785Z,187.07
2019-05-19T21:19:11.908Z,195.43
2019-05-19T21:21:42.072Z,189.13
2019-05-19T21:24:12.408Z,188.13
2019-05-19T21:26:43.006Z,210.35
2019-05-19T21:29:13.331Z,199.67
2019-05-19T21:31:43.623Z,187.03
2019-05-19T21:34:14.321Z,192.17
2019-05-19T21:36:45.941Z,199.30
2019-05-19T21:39:16.520Z,196.60
2019-05-19T21:41:46.731Z,196.00
2019-05-19T21:44:17.212Z,177.60
2019-05-19T21:46:47.830Z,196.43
2019-05-19T21:49:18.150Z,183.03
2019-05-19T21:51:49.597Z,181.83
2019-05-19T21:54:19.930Z,184.93
2019-05-19T21:56:50.241Z,181.13
2019-05-19T21:59:20.472Z,164.57
2019-05-19T22:01:50.992Z,189.40
2019-05-19T22:04:21.301Z,158.13
2019-05-19T22:06:58.755Z,175.63
2019-05-19T22:09:29.295Z,179.23
2019-05-19T22:11:59.575Z,156.83
2019-05-19T22:14:30.051Z,159.77
2019-05-19T22:17:00.593Z,166.07
2019-05-19T22:19:30.915Z,170.17
2019-05-19T22:22:01.204Z,158.00
2019-05-19T22:24:31.538Z,172.43
2019-05-19T22:27:02.179Z,169.07
2019-05-19T22:29:32.505Z,172.33
2019-05-19T22:32:02.805Z,169.43
2019-05-19T22:34:33.468Z,167.73
2019-05-19T22:37:03.762Z,152.90
2019-05-19T22:39:34.076Z,151.80
2019-05-19T22:42:04.771Z,167.87
2019-05-19T22:44:35.118Z,164.07
2019-05-19T22:47:05.360Z,175.07
2019-05-19T22:49:36.041Z,176.40
2019-05-19T22:52:06.958Z,159.90
2019-05-19T22:54:37.203Z,175.77
2019-05-19T22:57:07.469Z,189.13
2019-05-19T22:59:37.851Z,180.43
2019-05-19T23:02:09.363Z,174.80
2019-05-19T23:04:39.781Z,167.03
2019-05-19T23:07:10.427Z,194.00
2019-05-19T23:09:42.532Z,196.73
2019-05-19T23:12:12.711Z,192.17
2019-05-19T23:14:43.108Z,191.83
2019-05-19T23:17:14.020Z,189.70
2019-05-19T23:19:44.646Z,182.27
2019-05-19T23:22:14.938Z,172.23
2019-05-19T23:24:45.481Z,185.63
2019-05-19T23:27:16.014Z,171.43
2019-05-19T23:29:46.331Z,199.60
2019-05-19T23:32:16.478Z,195.23
2019-05-19T23:34:47.097Z,181.67
2019-05-19T23:37:17.288Z,189.87
2019-05-19T23:39:48.493Z,191.00
2019-05-19T23:42:18.905Z,190.00
2019-05-19T23:44:49.473Z,187.57
2019-05-19T23:47:19.749Z,191.80
2019-05-19T23:49:58.185Z,195.97
2019-05-19T23:52:30.045Z,179.43
2019-05-19T23:55:01.027Z,189.13
2019-05-19T23:57:31.709Z,200.77
